Latest Weather Observations for South Channel Island

IDV60901

Issued at 11:51 pm EST Wednesday 24 August 2016 (issued every 10 minutes, with the page automatically refreshed every 10 minutes)

About weather observations | Map of Melbourne area stations | Latest observations for Melbourne area | Other Formats
Station Details ID: 086344 Name: SOUTH CHANNEL ISLAND Lat: -38.31 Lon: 144.80 Height: 9.0 m
Data from the previous 72 hours. | See also: Recent months for locations in Victoria
Date/Time
EST
Temp
°C
App
Temp
°C
Dew
Point
°C
Rel
Hum
%
Delta-T
°C
Wind Press
QNH
hPa
Press
MSL
hPa
Rain since
9am
mm
Dir  Spd
km/h
Gust
km/h
Spd
kts
Gust
kts
24/11:30pm - - - - - SW 20 26 11 14 - - -
24/11:00pm - - - - - SW 24 28 13 15 - - -
24/10:30pm - - - - - SW 24 30 13 16 - - -
24/10:00pm - - - - - SSW 28 33 15 18 - - -
24/09:30pm - - - - - SW 24 30 13 16 - - -
24/09:00pm - - - - - SW 26 30 14 16 - - -
24/08:30pm - - - - - SW 28 33 15 18 - - -
24/08:00pm - - - - - SW 30 35 16 19 - - -
24/07:30pm - - - - - SSW 20 24 11 13 - - -
24/07:00pm - - - - - SSW 24 28 13 15 - - -
24/06:30pm - - - - - SSW 24 30 13 16 - - -
24/06:00pm - - - - - SSW 24 30 13 16 - - -
24/05:30pm - - - - - SSW 26 28 14 15 - - -
24/05:00pm - - - - - SSW 28 37 15 20 - - -
24/04:41pm - - - - - SSW 28 35 15 19 - - -
24/04:30pm - - - - - SSW 13 17 7 9 - - -
24/04:00pm - - - - - SW 13 17 7 9 - - -
24/03:30pm - - - - - SSW 11 15 6 8 - - -
24/03:00pm - - - - - S 26 32 14 17 - - -
24/02:30pm - - - - - SSW 22 28 12 15 - - -
24/02:00pm - - - - - ESE 15 19 8 10 - - -
24/01:30pm - - - - - E 15 19 8 10 - - -
24/01:00pm - - - - - ESE 17 19 9 10 - - -
24/12:30pm - - - - - WSW 7 11 4 6 - - -
24/12:00pm - - - - - SSW 13 17 7 9 - - -
24/11:30am - - - - - WSW 19 28 10 15 - - -
24/11:00am - - - - - WNW 13 13 7 7 - - -
24/10:30am - - - - - N 7 9 4 5 - - -
24/10:00am - - - - - NE 7 9 4 5 - - -
24/09:30am - - - - - E 9 11 5 6 - - -
24/09:00am - - - - - N 4 15 2 8 - - -
24/08:30am - - - - - CALM 0 7 0 4 - - -
24/08:00am - - - - - NW 7 9 4 5 - - -
24/07:30am - - - - - NNE 9 15 5 8 - - -
24/07:00am - - - - - NE 11 15 6 8 - - -
24/06:30am - - - - - ENE 13 17 7 9 - - -
24/06:00am - - - - - NNE 7 9 4 5 - - -
24/05:30am - - - - - ENE 11 13 6 7 - - -
24/05:00am - - - - - NE 9 11 5 6 - - -
24/04:30am - - - - - NE 13 13 7 7 - - -
24/04:00am - - - - - NE 11 13 6 7 - - -
24/03:30am - - - - - NE 13 13 7 7 - - -
24/03:00am - - - - - ENE 7 7 4 4 - - -
24/02:30am - - - - - NE 9 11 5 6 - - -
24/02:00am - - - - - ENE 9 13 5 7 - - -
24/01:30am - - - - - E 11 13 6 7 - - -
24/01:00am - - - - - ESE 9 11 5 6 - - -
24/12:30am - - - - - ESE 11 13 6 7 - - -
24/12:00am - - - - - S 13 17 7 9 - - -
 
Date/Time
EST
Temp
°C
App
Temp
°C
Dew
Point
°C
Rel
Hum
%
Delta-T
°C
Wind Press
QNH
hPa
Press
MSL
hPa
Rain since
9am
mm
Dir  Spd
km/h
Gust
km/h
Spd
kts
Gust
kts
23/11:30pm - - - - - SSW 17 20 9 11 - - -
23/11:00pm - - - - - SSW 17 20 9 11 - - -
23/10:30pm - - - - - S 19 20 10 11 - - -
23/10:00pm - - - - - S 17 20 9 11 - - -
23/09:30pm - - - - - S 19 20 10 11 - - -
23/09:00pm - - - - - S 19 22 10 12 - - -
23/08:30pm - - - - - S 17 19 9 10 - - -
23/08:00pm - - - - - S 19 20 10 11 - - -
23/07:30pm - - - - - S 17 19 9 10 - - -
23/07:00pm - - - - - S 19 22 10 12 - - -
23/06:30pm - - - - - SSW 20 26 11 14 - - -
23/06:00pm - - - - - SSW 20 24 11 13 - - -
23/05:30pm - - - - - SW 17 19 9 10 - - -
23/05:00pm - - - - - SW 19 22 10 12 - - -
23/04:30pm - - - - - SW 19 20 10 11 - - -
23/04:00pm - - - - - WSW 17 19 9 10 - - -
23/03:30pm - - - - - SW 15 20 8 11 - - -
23/03:00pm - - - - - SW 11 15 6 8 - - -
23/02:30pm - - - - - SW 15 17 8 9 - - -
23/02:00pm - - - - - SW 17 20 9 11 - - -
23/01:30pm - - - - - SSW 15 17 8 9 - - -
23/01:00pm - - - - - SSW 13 15 7 8 - - -
23/12:30pm - - - - - SSW 15 17 8 9 - - -
23/12:00pm - - - - - WSW 11 22 6 12 - - -
23/11:30am - - - - - W 13 15 7 8 - - -
23/11:00am - - - - - W 11 15 6 8 - - -
23/10:30am - - - - - SW 9 13 5 7 - - -
23/10:00am - - - - - SSW 26 32 14 17 - - -
23/09:30am - - - - - NW 4 7 2 4 - - -
23/09:00am - - - - - CALM 0 0 0 0 - - -
23/08:30am - - - - - CALM 0 0 0 0 - - -
23/08:00am - - - - - CALM 0 0 0 0 - - -
23/07:30am - - - - - CALM 0 0 0 0 - - -
23/07:00am - - - - - S 6 7 3 4 - - -
23/06:30am - - - - - S 9 11 5 6 - - -
23/06:00am - - - - - S 9 11 5 6 - - -
23/05:30am - - - - - S 9 9 5 5 - - -
23/05:00am - - - - - S 9 11 5 6 - - -
23/04:30am - - - - - SSE 13 15 7 8 - - -
23/04:00am - - - - - SSE 11 15 6 8 - - -
23/03:30am - - - - - SSE 11 13 6 7 - - -
23/03:00am - - - - - S 11 13 6 7 - - -
23/02:30am - - - - - SSE 13 15 7 8 - - -
23/02:00am - - - - - SSE 17 17 9 9 - - -
23/01:30am - - - - - SSE 17 20 9 11 - - -
23/01:00am - - - - - S 6 9 3 5 - - -
23/12:30am - - - - - S 11 17 6 9 - - -
23/12:00am - - - - - ESE 7 9 4 5 - - -
 
Date/Time
EST
Temp
°C
App
Temp
°C
Dew
Point
°C
Rel
Hum
%
Delta-T
°C
Wind Press
QNH
hPa
Press
MSL
hPa
Rain since
9am
mm
Dir  Spd
km/h
Gust
km/h
Spd
kts
Gust
kts
22/11:30pm - - - - - SE 9 9 5 5 - - -
22/11:00pm - - - - - SSE 9 11 5 6 - - -
22/10:30pm - - - - - SE 9 9 5 5 - - -
22/10:00pm - - - - - SSE 9 13 5 7 - - -
22/09:30pm - - - - - SSE 13 13 7 7 - - -
22/09:00pm - - - - - S 11 13 6 7 - - -
22/08:30pm - - - - - SSE 9 11 5 6 - - -
22/08:00pm - - - - - W 7 11 4 6 - - -
22/07:30pm - - - - - WSW 13 17 7 9 - - -
22/07:00pm - - - - - W 24 30 13 16 - - -
22/06:30pm - - - - - SSE 19 20 10 11 - - -
22/06:00pm - - - - - S 19 24 10 13 - - -
22/05:30pm - - - - - S 19 22 10 12 - - -
22/05:00pm - - - - - S 20 26 11 14 - - -
22/04:30pm - - - - - S 24 26 13 14 - - -
22/04:00pm - - - - - S 20 26 11 14 - - -
22/03:30pm - - - - - S 15 19 8 10 - - -
22/03:00pm - - - - - SSW 15 19 8 10 - - -
22/02:30pm - - - - - ENE 6 7 3 4 - - -
22/02:00pm - - - - - SE 7 7 4 4 - - -
22/01:30pm - - - - - ESE 7 9 4 5 - - -
22/01:00pm - - - - - SE 6 7 3 4 - - -
22/12:30pm - - - - - ENE 7 9 4 5 - - -
22/12:00pm - - - - - NNE 9 11 5 6 - - -
22/11:30am - - - - - NE 7 9 4 5 - - -
22/11:00am - - - - - NE 6 7 3 4 - - -
22/10:30am - - - - - NNE 6 7 3 4 - - -
22/10:00am - - - - - N 6 7 3 4 - - -
22/09:30am - - - - - CALM 0 6 0 3 - - -
22/09:00am - - - - - W 7 9 4 5 - - -
22/08:30am - - - - - N 11 11 6 6 - - -
22/08:00am - - - - - N 15 17 8 9 - - -
22/07:30am - - - - - N 15 17 8 9 - - -
22/07:00am - - - - - WNW 11 15 6 8 - - -
22/06:30am - - - - - WNW 13 15 7 8 - - -
22/06:00am - - - - - W 15 19 8 10 - - -
22/05:30am - - - - - W 15 17 8 9 - - -
22/05:00am - - - - - W 15 19 8 10 - - -
22/04:30am - - - - - WNW 19 22 10 12 - - -
22/04:00am - - - - - WNW 19 22 10 12 - - -
22/03:30am - - - - - NW 20 24 11 13 - - -
22/03:00am - - - - - NW 19 20 10 11 - - -
22/02:30am - - - - - NNW 17 19 9 10 - - -
22/02:00am - - - - - N 17 20 9 11 - - -
22/01:30am - - - - - N 11 13 6 7 - - -
22/01:00am - - - - - N 9 11 5 6 - - -
22/12:30am - - - - - NNW 13 13 7 7 - - -
22/12:00am - - - - - NNW 11 15 6 8 - - -

Latest Capital City Observations: Canberra | Sydney | Melbourne | Brisbane | Adelaide | Perth | Hobart | Darwin

Other Formats:

Comma delimited format used in spreadsheet applications
http://www.bom.gov.au/fwo/IDV60901/IDV60901.94853.axf

JavaScript Object Notation format (JSON) in row-major order
http://www.bom.gov.au/fwo/IDV60901/IDV60901.94853.json